Time;durP1;ratioP1;P1;durP2;ratioP2;P2;SDS_P1;SDS_P2;PMS_P1;PMS_P2;Temp;Humidity;BMP_temperature;BMP_pressure;BME280_temperature;BME280_humidity;BME280_pressure;Samples;Min_cycle;Max_cycle;Signal;HPM_P1;HPM_P2
2022/12/18 09:58:46;;;;;;;;;64.00;51.33;;;;;-0.64;85.05;101963.13;6229790;22;1295409;-72
2022/12/18 10:01:16;;;;;;;;;52.67;43.67;;;;;0.35;85.35;102115.09;6303927;22;49812;-62
2022/12/18 10:03:41;;;;;;;;;66.00;50.67;;;;;0.51;84.87;102131.09;6306097;22;49931;-63
2022/12/18 10:06:15;;;;;;;;;70.00;51.00;;;;;0.60;84.39;102149.06;6301698;22;53687;-67
2022/12/18 10:08:55;;;;;;;;;61.67;47.67;;;;;0.77;84.17;102198.78;6302708;22;49656;-64
2022/12/18 10:11:52;;;;;;;;;57.00;47.33;;;;;0.73;85.21;102139.84;6303229;22;49612;-61
2022/12/18 10:14:30;;;;;;;;;19.33;14.67;;;;;1.00;84.41;102166.13;6304419;22;49829;-68
2022/12/18 10:17:19;;;;;;;;;27.67;22.33;;;;;1.04;83.75;102169.09;6306937;22;50902;-67
2022/12/18 10:20:00;;;;;;;;;50.67;47.00;;;;;1.10;83.11;102173.88;6305487;22;49710;-70
2022/12/18 10:22:35;;;;;;;;;62.33;50.00;;;;;1.09;82.22;102165.22;6307425;22;49568;-71
2022/12/18 10:25:51;;;;;;;;;55.00;47.67;;;;;1.13;82.27;102163.75;6305344;22;49977;-67
2022/12/18 10:28:19;;;;;;;;;46.00;41.33;;;;;1.01;83.13;102130.06;6233901;22;52490;-68
2022/12/18 10:30:46;;;;;;;;;57.33;47.67;;;;;0.90;82.60;102130.88;6304688;22;49810;-77
2022/12/18 10:33:16;;;;;;;;;54.33;46.00;;;;;0.28;82.06;101982.84;6304519;22;49712;-79
2022/12/18 10:35:44;;;;;;;;;62.33;51.00;;;;;-0.05;82.11;101936.22;6303589;22;50323;-78
2022/12/18 10:38:16;;;;;;;;;67.33;55.33;;;;;1.33;81.85;102153.31;6297146;22;51569;-72
2022/12/18 10:41:26;;;;;;;;;59.33;48.00;;;;;0.94;80.95;102082.88;6297125;22;49732;-72
2022/12/18 10:44:10;;;;;;;;;49.67;47.00;;;;;1.36;80.21;102145.81;6297208;22;49646;-78
2022/12/18 10:46:36;;;;;;;;;65.33;49.67;;;;;1.40;82.14;102155.63;6298167;22;49648;-74
2022/12/18 10:49:02;;;;;;;;;55.33;47.00;;;;;-0.12;81.30;101908.09;6297205;22;51373;-74
2022/12/18 10:51:30;;;;;;;;;56.33;47.00;;;;;1.21;81.01;102089.38;6297855;22;49607;-72
2022/12/18 10:54:01;;;;;;;;;53.33;47.67;;;;;1.67;81.07;102130.13;6297826;22;49991;-67
2022/12/18 10:56:29;;;;;;;;;59.67;46.00;;;;;0.92;80.21;101997.44;6298217;22;49512;-72
2022/12/18 10:59:04;;;;;;;;;70.67;53.33;;;;;0.75;79.57;101972.84;6297305;22;50539;-67
2022/12/18 11:01:46;;;;;;;;;63.67;50.67;;;;;1.60;79.98;102136.50;6297923;22;49948;-67
2022/12/18 11:04:25;;;;;;;;;70.00;53.67;;;;;1.67;78.97;102133.63;6298396;22;49758;-69
2022/12/18 11:06:57;;;;;;;;;55.67;47.00;;;;;0.85;79.51;101998.63;6297715;22;49930;-69
2022/12/18 11:09:28;;;;;;;;;68.33;52.33;;;;;0.37;79.92;101931.03;6297625;22;49729;-68
2022/12/18 11:11:56;;;;;;;;;58.67;47.33;;;;;1.35;80.08;102039.59;6298304;22;49594;-74
2022/12/18 11:14:28;;;;;;;;;63.00;50.33;;;;;1.99;80.19;102125.72;6298002;22;49753;-67
2022/12/18 11:16:57;;;;;;;;;69.33;53.67;;;;;1.38;79.28;101993.28;6298115;22;49502;-70
2022/12/18 11:19:35;;;;;;;;;55.00;47.67;;;;;2.24;79.07;102138.88;6297887;22;50769;-68
2022/12/18 11:22:17;;;;;;;;;64.33;51.33;;;;;1.88;78.07;102085.16;6297885;22;49650;-67
2022/12/18 11:24:42;;;;;;;;;69.33;54.00;;;;;2.15;76.95;102099.31;6297630;22;49728;-68
2022/12/18 11:27:18;;;;;;;;;58.67;45.33;;;;;0.59;77.26;101842.34;6298721;22;49600;-68
2022/12/18 11:29:43;;;;;;;;;63.00;49.00;;;;;1.67;77.11;101974.81;6299840;22;50635;-67
2022/12/18 11:32:43;;;;;;;;;72.00;53.00;;;;;2.39;77.80;102094.16;6294497;22;49922;-69
2022/12/18 11:35:14;;;;;;;;;62.33;50.00;;;;;2.45;77.92;102087.75;6295876;22;49872;-68
2022/12/18 11:37:46;;;;;;;;;63.00;51.67;;;;;1.18;76.50;101889.97;6298335;22;49741;-73
2022/12/18 11:40:17;;;;;;;;;52.33;41.33;;;;;0.98;77.44;101816.06;6296779;22;50810;-69
2022/12/18 11:43:06;;;;;;;;;65.67;52.33;;;;;2.38;76.95;102031.06;6298194;22;49972;-73
2022/12/18 11:45:38;;;;;;;;;67.67;55.67;;;;;2.65;76.32;102075.38;6297952;22;49565;-71
2022/12/18 11:48:21;;;;;;;;;57.67;46.00;;;;;2.65;76.36;102090.94;6298225;22;49744;-75
2022/12/18 11:50:53;;;;;;;;;56.67;47.00;;;;;1.67;75.89;101926.53;6296748;22;49908;-68
2022/12/18 11:53:19;;;;;;;;;62.00;50.67;;;;;1.74;75.29;101912.34;6296563;22;49880;-69
2022/12/18 11:55:59;;;;;;;;;50.00;44.67;;;;;2.88;74.54;102068.47;6297226;22;49619;-68
2022/12/18 11:58:46;;;;;;;;;63.33;49.33;;;;;2.71;74.70;102032.66;6297384;22;49862;-69
2022/12/18 12:01:36;;;;;;;;;65.00;51.67;;;;;3.00;74.01;102064.97;6297299;22;49868;-68
2022/12/18 12:04:23;;;;;;;;;57.00;46.00;;;;;3.03;74.77;102072.97;6297778;22;50264;-69
2022/12/18 12:07:11;;;;;;;;;59.00;47.00;;;;;3.10;74.01;102064.84;6297609;22;49737;-69
2022/12/18 12:10:20;;;;;;;;;68.33;51.67;;;;;2.91;73.97;102012.44;6297624;22;50185;-71
2022/12/18 12:13:27;;;;;;;;;61.00;48.67;;;;;3.18;73.92;102074.03;6297309;22;49724;-69
2022/12/18 12:16:05;;;;;;;;;62.67;51.33;;;;;3.17;74.18;102054.06;6296525;22;49581;-73
2022/12/18 12:18:52;;;;;;;;;72.33;52.00;;;;;3.00;74.33;102050.31;6297988;22;49737;-70
2022/12/18 12:21:34;;;;;;;;;65.33;54.33;;;;;3.09;73.65;102039.69;6296269;22;50254;-69
2022/12/18 12:24:02;;;;;;;;;70.33;56.00;;;;;3.09;73.96;102031.91;6297348;22;49737;-69
2022/12/18 12:26:47;;;;;;;;;63.67;50.00;;;;;3.10;74.38;102025.91;6295779;22;49831;-69
2022/12/18 12:29:31;;;;;;;;;66.67;50.67;;;;;3.16;74.67;102029.81;6274843;22;49997;-69
2022/12/18 12:32:40;;;;;;;;;69.33;54.67;;;;;3.19;73.85;102026.56;6296009;22;49989;-68
2022/12/18 12:35:19;;;;;;;;;52.33;45.67;;;;;3.20;72.81;102025.78;6297341;22;49810;-69
2022/12/18 12:37:53;;;;;;;;;57.33;45.67;;;;;3.23;73.39;102022.47;6296238;22;50061;-71
2022/12/18 12:40:20;;;;;;;;;65.33;49.33;;;;;2.87;73.80;101934.38;6298936;22;49672;-68
2022/12/18 12:43:15;;;;;;;;;68.00;55.67;;;;;3.07;73.31;101992.84;6298789;22;49617;-71
2022/12/18 12:46:06;;;;;;;;;64.67;50.33;;;;;3.35;73.04;102044.09;6295713;22;49822;-66
2022/12/18 12:48:35;;;;;;;;;69.00;54.33;;;;;2.30;72.97;101851.72;6297992;22;49810;-68
2022/12/18 12:51:08;;;;;;;;;69.33;55.33;;;;;2.08;73.40;101795.69;6296681;22;49778;-71
2022/12/18 12:53:37;;;;;;;;;66.67;51.67;;;;;2.64;73.73;101894.69;6297447;22;49709;-67
2022/12/18 12:56:06;;;;;;;;;58.00;44.67;;;;;2.90;73.25;101919.84;6297267;22;49974;-79
2022/12/18 12:58:41;;;;;;;;;67.00;48.33;;;;;1.95;73.19;101719.72;6297065;22;49879;-69
2022/12/18 13:01:21;;;;;;;;;63.00;53.00;;;;;3.71;72.77;102010.28;6297315;22;49804;-67
2022/12/18 13:04:18;;;;;;;;;56.33;46.00;;;;;3.76;72.38;102008.00;6296876;22;50058;-67
2022/12/18 13:06:51;;;;;;;;;67.33;51.67;;;;;3.45;71.63;101945.28;6296648;22;49840;-67
2022/12/18 13:09:16;;;;;;;;;72.33;55.33;;;;;3.45;72.06;101964.38;6297763;22;49801;-65
2022/12/18 13:14:30;;;;;;;;;66.33;55.00;;;;;3.61;72.15;101997.47;6297460;22;49842;-64
2022/12/18 13:17:14;;;;;;;;;62.33;49.00;;;;;3.56;71.78;101985.88;6297007;22;50594;-61
2022/12/18 13:19:40;;;;;;;;;59.00;50.00;;;;;2.34;72.88;101763.84;6297147;22;49817;-64
2022/12/18 13:22:22;;;;;;;;;59.00;47.67;;;;;3.45;72.65;101966.97;6296968;22;49836;-70
2022/12/18 13:24:47;;;;;;;;;52.75;44.25;;;;;2.33;72.75;101769.81;6297467;22;49913;-66
2022/12/18 13:27:43;;;;;;;;;62.67;51.00;;;;;3.62;72.74;101990.59;6296722;22;49726;-64
2022/12/18 13:30:33;;;;;;;;;62.33;50.00;;;;;3.58;72.47;101979.09;6296573;22;50046;-65
2022/12/18 13:33:14;;;;;;;;;57.67;49.33;;;;;3.59;73.72;101978.31;6297727;22;49804;-67
2022/12/18 13:35:50;;;;;;;;;55.50;46.50;;;;;3.41;73.79;101927.72;6297283;22;50141;-67
2022/12/18 13:38:30;;;;;;;;;58.67;48.33;;;;;3.45;73.44;101946.19;6296696;22;50517;-67
2022/12/18 13:41:00;;;;;;;;;58.50;48.25;;;;;3.43;73.49;101957.28;6296980;22;49809;-67
2022/12/18 13:43:33;;;;;;;;;61.00;49.00;;;;;3.49;74.17;101962.00;6296988;22;49591;-67
2022/12/18 13:46:17;;;;;;;;;62.00;51.00;;;;;3.16;74.45;101951.09;6297298;22;49899;-66
2022/12/18 13:49:07;;;;;;;;;66.00;53.67;;;;;3.39;74.82;101957.88;6297623;22;50956;-71
2022/12/18 13:51:34;;;;;;;;;69.00;53.00;;;;;2.56;74.27;101801.72;6297251;22;49874;-71
2022/12/18 13:54:27;;;;;;;;;57.00;48.25;;;;;3.50;75.42;101953.41;6297619;22;49583;-71
2022/12/18 13:56:52;;;;;;;;;71.67;52.33;;;;;2.64;74.66;101838.53;6298757;22;49737;-71
2022/12/18 13:59:26;;;;;;;;;62.00;50.00;;;;;3.31;75.49;101928.78;6299244;22;50492;-72
2022/12/18 14:01:57;;;;;;;;;61.25;48.75;;;;;2.63;75.31;101825.47;6297240;22;49705;-70
2022/12/18 14:04:32;;;;;;;;;64.25;49.75;;;;;1.88;75.22;101663.09;6294611;22;49774;-72
2022/12/18 14:07:02;;;;;;;;;66.33;54.00;;;;;2.68;75.41;101830.16;6296704;22;49743;-71
2022/12/18 14:09:31;;;;;;;;;65.33;50.00;;;;;3.44;76.55;101941.81;6297930;22;50842;-71
2022/12/18 14:14:47;;;;;;;;;41.25;38.50;;;;;3.41;77.07;101925.13;6264161;22;49747;-69
2022/12/18 14:17:13;;;;;;;;;64.67;47.33;;;;;2.38;76.87;101739.94;6297990;22;49621;-69
2022/12/18 14:19:44;;;;;;;;;66.50;49.50;;;;;3.21;77.11;101882.25;6297751;22;50469;-68
2022/12/18 14:22:29;;;;;;;;;62.75;47.00;;;;;2.51;77.06;101781.44;6298113;22;49638;-69
2022/12/18 14:25:12;;;;;;;;;56.50;49.00;;;;;3.23;77.49;101890.13;6298642;22;49743;-70
2022/12/18 14:27:43;;;;;;;;;57.00;47.25;;;;;3.31;78.65;101900.25;6298972;22;49587;-69
2022/12/18 14:30:24;;;;;;;;;63.00;46.75;;;;;3.38;79.39;101928.44;6298988;22;50516;-70
2022/12/18 14:33:04;;;;;;;;;53.67;46.33;;;;;3.37;79.41;101923.09;6298005;22;49645;-68
2022/12/18 14:35:30;;;;;;;;;50.50;44.50;;;;;2.88;80.67;101829.84;6298078;22;49901;-70
2022/12/18 14:38:22;;;;;;;;;55.50;43.25;;;;;3.36;81.58;101916.13;6298434;22;49606;-75
2022/12/18 14:40:47;;;;;;;;;67.00;50.00;;;;;2.80;82.23;101814.59;6297677;22;51051;-73
2022/12/18 14:43:13;;;;;;;;;68.67;52.33;;;;;2.52;83.31;101758.25;6298146;22;49781;-70
2022/12/18 14:45:44;;;;;;;;;58.75;47.50;;;;;3.47;83.87;101942.81;6295471;22;50152;-69
2022/12/18 14:48:18;;;;;;;;;54.75;45.50;;;;;3.55;84.41;101910.47;6298455;22;49787;-70
2022/12/18 14:50:44;;;;;;;;;67.33;53.67;;;;;2.33;84.22;101737.03;6297650;22;49790;-68
2022/12/18 14:53:32;;;;;;;;;58.33;46.00;;;;;2.65;84.67;101797.97;6297641;22;49851;-76
2022/12/18 14:55:57;;;;;;;;;59.50;48.25;;;;;2.55;84.64;101729.03;6297707;22;49754;-76
2022/12/18 14:58:23;;;;;;;;;57.25;48.25;;;;;2.49;84.97;101721.72;6297784;22;49545;-76
2022/12/18 15:00:49;;;;;;;;;63.00;48.00;;;;;3.02;85.49;101828.22;6297978;22;49812;-69
2022/12/18 15:03:20;;;;;;;;;65.67;51.00;;;;;2.03;85.30;101662.34;6298360;22;49784;-69
2022/12/18 15:05:46;;;;;;;;;61.33;52.33;;;;;2.48;86.42;101706.97;6298153;22;49713;-69
2022/12/18 15:08:29;;;;;;;;;63.00;52.33;;;;;2.52;85.74;101715.88;6298352;22;49735;-72
2022/12/18 15:10:54;;;;;;;;;67.67;48.33;;;;;2.24;86.22;101687.16;6296754;22;49795;-74
2022/12/18 15:13:24;;;;;;;;;64.67;51.67;;;;;3.40;85.84;101885.28;6298095;22;49548;-74
2022/12/18 15:15:51;;;;;;;;;67.00;49.00;;;;;3.19;85.90;101818.09;6297061;22;49572;-75
2022/12/18 15:18:20;;;;;;;;;61.33;51.00;;;;;3.32;86.45;101836.25;6297942;22;49518;-73
2022/12/18 15:20:59;;;;;;;;;59.00;50.33;;;;;3.66;87.02;101889.59;6297724;22;50291;-71
2022/12/18 15:23:30;;;;;;;;;62.00;52.00;;;;;2.93;86.52;101757.56;6297444;22;49635;-69
2022/12/18 15:25:57;;;;;;;;;67.00;51.67;;;;;2.48;87.53;101704.38;6297502;22;49672;-76
2022/12/18 15:28:45;;;;;;;;;63.67;51.33;;;;;2.70;87.83;101743.06;6298129;22;49826;-69
2022/12/18 15:31:22;;;;;;;;;66.67;53.67;;;;;3.73;88.24;101876.25;6296438;22;50627;-69
2022/12/18 15:33:53;;;;;;;;;66.00;54.00;;;;;3.76;87.73;101867.75;6297253;22;49647;-71
2022/12/18 15:36:22;;;;;;;;;57.33;44.33;;;;;2.08;88.86;101584.19;6295433;22;49526;-74
2022/12/18 15:38:49;;;;;;;;;44.50;41.25;;;;;3.16;88.07;101775.53;6297741;22;49885;-69
2022/12/18 15:41:16;;;;;;;;;63.67;51.00;;;;;3.08;89.46;101724.84;6296673;22;50988;-74
2022/12/18 15:43:42;;;;;;;;;67.00;51.33;;;;;3.74;88.65;101851.16;6297177;22;49795;-77
2022/12/18 15:46:18;;;;;;;;;67.00;51.00;;;;;3.76;89.23;101840.88;6297397;22;49707;-65
2022/12/18 15:48:53;;;;;;;;;63.67;50.00;;;;;3.77;89.00;101837.50;6297667;22;49773;-70
2022/12/18 15:51:35;;;;;;;;;61.00;48.67;;;;;3.78;88.76;101839.31;6296918;22;49823;-66
2022/12/18 15:54:06;;;;;;;;;59.00;49.33;;;;;3.53;89.04;101823.81;6297326;22;49826;-70
2022/12/18 15:59:20;;;;;;;;;66.00;51.67;;;;;2.34;89.57;101616.16;6297569;22;49814;-70
2022/12/18 16:01:51;;;;;;;;;62.67;53.33;;;;;3.57;89.07;101785.19;6297425;22;50592;-64
2022/12/18 16:04:20;;;;;;;;;71.00;55.67;;;;;2.90;88.44;101717.56;6297052;22;49643;-70
2022/12/18 16:06:45;;;;;;;;;73.67;55.67;;;;;2.92;89.05;101724.63;6297623;22;49772;-64
2022/12/18 16:09:11;;;;;;;;;66.33;52.00;;;;;3.71;89.66;101819.81;6297967;22;49877;-65
2022/12/18 16:11:39;;;;;;;;;62.33;48.67;;;;;2.92;89.20;101709.06;6296368;22;49908;-70
2022/12/18 16:14:31;;;;;;;;;68.67;54.33;;;;;3.84;89.36;101837.09;6296891;22;49761;-63
2022/12/18 16:17:02;;;;;;;;;72.67;54.33;;;;;3.66;89.83;101809.09;6290200;22;50170;-69
2022/12/18 16:19:28;;;;;;;;;62.67;52.00;;;;;2.61;89.98;101624.88;6296746;22;50060;-72
2022/12/18 16:21:56;;;;;;;;;63.67;48.00;;;;;2.09;90.37;101554.00;6297450;22;50844;-74
2022/12/18 16:24:24;;;;;;;;;71.33;55.67;;;;;3.07;91.55;101702.28;6297524;22;49912;-72
2022/12/18 16:26:53;;;;;;;;;68.00;51.33;;;;;3.05;92.07;101718.56;6297331;22;49962;-76
2022/12/18 16:29:24;;;;;;;;;67.67;52.00;;;;;2.81;92.10;101672.06;6296983;22;49982;-66
2022/12/18 16:31:50;;;;;;;;;68.00;49.00;;;;;3.00;92.51;101694.03;6296946;22;50677;-75
2022/12/18 16:34:30;;;;;;;;;64.67;50.67;;;;;2.43;92.95;101565.84;6295889;22;49630;-72
2022/12/18 16:36:58;;;;;;;;;64.33;52.00;;;;;3.99;94.21;101848.47;6297750;22;49731;-65
2022/12/18 16:39:24;;;;;;;;;64.00;49.33;;;;;3.67;95.19;101774.59;6297262;22;49814;-64
2022/12/18 16:41:50;;;;;;;;;60.67;49.00;;;;;3.20;94.29;101684.94;6296344;22;49928;-67
2022/12/18 16:44:15;;;;;;;;;68.67;52.33;;;;;3.17;95.53;101691.72;6297104;22;49778;-65
2022/12/18 16:46:45;;;;;;;;;70.67;54.33;;;;;3.32;96.25;101737.63;6297062;22;49558;-66
2022/12/18 16:49:14;;;;;;;;;71.00;54.00;;;;;2.41;96.20;101558.72;6297803;22;49866;-64
2022/12/18 16:51:39;;;;;;;;;64.00;51.33;;;;;3.76;96.62;101800.22;6297405;22;50807;-72
2022/12/18 16:54:05;;;;;;;;;66.67;52.33;;;;;3.04;97.34;101650.22;6297476;22;49485;-65
2022/12/18 16:56:31;;;;;;;;;66.00;52.67;;;;;4.03;96.84;101819.28;6297086;22;49584;-65
2022/12/18 16:58:58;;;;;;;;;64.00;53.67;;;;;3.12;97.91;101677.56;6297244;22;49749;-72
2022/12/18 17:01:25;;;;;;;;;58.50;46.25;;;;;3.20;98.04;101665.09;6296691;22;49972;-67
2022/12/18 17:03:55;;;;;;;;;63.33;53.67;;;;;3.70;97.89;101763.47;6297874;22;49726;-75
2022/12/18 17:06:22;;;;;;;;;65.00;52.33;;;;;4.06;99.64;101808.22;6297505;22;49683;-76
2022/12/18 17:08:54;;;;;;;;;63.25;50.75;;;;;2.96;99.37;101641.03;6297276;22;49501;-77
2022/12/18 17:11:20;;;;;;;;;63.75;48.00;;;;;3.72;100.00;101767.97;6296180;22;50302;-67
2022/12/18 17:13:45;;;;;;;;;62.50;52.00;;;;;2.43;100.00;101526.06;6297229;22;49756;-67
2022/12/18 17:16:10;;;;;;;;;50.50;38.75;;;;;4.13;100.00;101812.97;6297320;22;49668;-65
2022/12/18 17:18:36;;;;;;;;;58.00;48.67;;;;;3.90;100.00;101765.66;6297547;22;49528;-71
2022/12/18 17:21:05;;;;;;;;;63.33;48.67;;;;;4.04;100.00;101769.09;6296758;22;50602;-75
2022/12/18 17:23:31;;;;;;;;;69.00;55.33;;;;;4.17;100.00;101781.19;6297545;22;49794;-74
2022/12/18 17:25:58;;;;;;;;;58.00;48.33;;;;;3.82;100.00;101727.00;6296743;22;49538;-67
2022/12/18 17:28:27;;;;;;;;;63.00;51.00;;;;;4.23;100.00;101784.16;6296832;22;49737;-75
2022/12/18 17:30:54;;;;;;;;;65.25;52.75;;;;;2.43;100.00;101479.41;6296973;22;49868;-76
2022/12/18 17:33:20;;;;;;;;;70.00;50.00;;;;;3.43;100.00;101653.56;6297153;22;49639;-69
2022/12/18 17:35:46;;;;;;;;;64.50;52.00;;;;;4.25;100.00;101779.97;6296710;22;49926;-66
2022/12/18 17:38:12;;;;;;;;;68.00;52.00;;;;;3.82;100.00;101694.13;6297035;22;49608;-65
2022/12/18 17:40:39;;;;;;;;;65.67;52.00;;;;;4.26;100.00;101767.06;6296682;22;50426;-73
2022/12/18 17:43:08;;;;;;;;;55.50;47.00;;;;;4.27;100.00;101761.06;6300149;22;49978;-66
2022/12/18 17:45:38;;;;;;;;;62.00;43.67;;;;;2.94;100.00;101557.03;6299878;22;49266;-67
2022/12/18 17:48:07;;;;;;;;;63.00;53.00;;;;;3.39;100.00;101608.38;6300688;22;49501;-76
2022/12/18 17:50:33;;;;;;;;;64.67;53.67;;;;;3.56;100.00;101650.03;6303696;22;49542;-66
2022/12/18 17:52:59;;;;;;;;;64.67;55.33;;;;;2.71;100.00;101508.00;6310320;22;49718;-65
2022/12/18 17:55:25;;;;;;;;;64.33;52.33;;;;;2.97;100.00;101565.00;6310295;22;49298;-72
2022/12/18 17:57:51;;;;;;;;;61.67;49.33;;;;;4.03;100.00;101739.63;6308767;22;49578;-64
2022/12/18 18:00:16;;;;;;;;;62.67;45.33;;;;;4.35;100.00;101787.53;6310461;22;50087;-75
2022/12/18 18:02:42;;;;;;;;;64.33;50.67;;;;;4.20;100.00;101765.78;6303442;22;49838;-76
2022/12/18 18:05:07;;;;;;;;;65.33;50.67;;;;;3.99;100.00;101744.56;6297479;22;49955;-71
2022/12/18 18:07:33;;;;;;;;;60.33;48.67;;;;;4.38;100.00;101805.03;6298491;22;49777;-69
2022/12/18 18:09:58;;;;;;;;;55.33;46.00;;;;;4.41;100.00;101826.00;6297638;22;49849;-69
2022/12/18 18:15:08;;;;;;;;;63.50;52.50;;;;;4.34;100.00;101816.00;6298153;22;49746;-73
2022/12/18 18:17:33;;;;;;;;;67.67;54.67;;;;;4.48;100.00;101838.59;6299187;22;49947;-74
2022/12/18 18:19:58;;;;;;;;;64.75;50.25;;;;;4.35;100.00;101813.53;6298027;22;52198;-79
2022/12/18 18:22:24;;;;;;;;;59.50;47.50;;;;;4.51;100.00;101841.38;6302189;22;49533;-68
2022/12/18 18:24:49;;;;;;;;;65.25;49.25;;;;;3.93;100.00;101752.84;6303533;22;60461;-77
2022/12/18 18:27:15;;;;;;;;;72.33;54.33;;;;;4.35;100.00;101810.03;6300927;22;49552;-84
2022/12/18 18:29:40;;;;;;;;;61.00;49.67;;;;;4.52;100.00;101845.75;6301140;22;50796;-78
2022/12/18 18:32:06;;;;;;;;;61.67;49.67;;;;;4.37;100.00;101819.72;6298759;22;49635;-73
2022/12/18 18:34:31;;;;;;;;;63.33;51.33;;;;;4.52;100.00;101833.66;6296508;22;49770;-66
2022/12/18 18:36:57;;;;;;;;;65.67;52.33;;;;;4.48;100.00;101820.38;6304407;22;49597;-64
2022/12/18 18:39:23;;;;;;;;;61.00;51.67;;;;;4.54;100.00;101836.38;6297097;22;49671;-67
2022/12/18 18:41:48;;;;;;;;;63.67;53.00;;;;;4.19;100.00;101776.97;6297769;22;49615;-67
2022/12/18 18:44:15;;;;;;;;;70.00;57.00;;;;;4.56;100.00;101851.25;6297686;22;49545;-65
2022/12/18 18:46:40;;;;;;;;;62.33;51.33;;;;;4.54;100.00;101837.28;6297699;22;49765;-67
2022/12/18 18:49:06;;;;;;;;;73.00;54.33;;;;;4.38;100.00;101813.72;6296947;22;63226;-67
2022/12/18 18:51:31;;;;;;;;;71.00;56.67;;;;;4.55;100.00;101838.19;6297360;22;49789;-66
2022/12/18 18:53:56;;;;;;;;;71.00;58.00;;;;;4.24;100.00;101798.94;6297161;22;49997;-66
2022/12/18 18:56:26;;;;;;;;;69.67;55.67;;;;;4.56;100.00;101839.97;6297463;22;49785;-65
2022/12/18 18:58:51;;;;;;;;;63.00;49.33;;;;;4.46;100.00;101819.41;6296721;22;49981;-65
2022/12/18 19:01:19;;;;;;;;;51.33;43.00;;;;;4.62;100.00;101834.22;6297659;22;49577;-66
2022/12/18 19:03:45;;;;;;;;;64.33;52.67;;;;;4.60;100.00;101827.22;6299798;22;49931;-65
2022/12/18 19:06:18;;;;;;;;;70.00;56.00;;;;;4.55;100.00;101799.16;6299990;22;49617;-66
2022/12/18 19:08:45;;;;;;;;;63.33;50.00;;;;;4.53;100.00;101793.84;6297464;22;49746;-65
2022/12/18 19:13:58;;;;;;;;;65.67;50.00;;;;;4.58;100.00;101789.84;6298563;22;49732;-73
2022/12/18 19:16:25;;;;;;;;;65.00;49.33;;;;;4.66;100.00;101797.22;6300983;22;49737;-69
2022/12/18 19:18:50;;;;;;;;;64.33;53.33;;;;;4.67;100.00;101804.22;6295325;22;51460;-68
2022/12/18 19:21:16;;;;;;;;;67.00;53.67;;;;;4.42;100.00;101752.41;6301100;22;49808;-72
2022/12/18 19:23:42;;;;;;;;;64.33;52.67;;;;;4.66;100.00;101797.22;6303846;22;49560;-64
2022/12/18 19:26:08;;;;;;;;;66.33;54.33;;;;;4.64;100.00;101781.53;6297400;22;49554;-62
2022/12/18 19:28:34;;;;;;;;;72.67;59.33;;;;;4.72;100.00;101788.06;6297195;22;50425;-62
2022/12/18 19:31:05;;;;;;;;;66.67;55.00;;;;;4.63;100.00;101768.41;6297794;22;49705;-65
2022/12/18 19:33:34;;;;;;;;;74.33;59.00;;;;;4.70;100.00;101786.19;6298567;22;49845;-63
2022/12/18 19:35:59;;;;;;;;;66.33;52.33;;;;;4.53;100.00;101754.84;6298032;22;49960;-64
2022/12/18 19:38:24;;;;;;;;;94.67;75.67;;;;;4.37;100.00;101725.25;6297381;22;50418;-61
2022/12/18 19:40:50;;;;;;;;;77.33;59.00;;;;;4.72;100.00;101797.56;6297708;22;49679;-62
2022/12/18 19:43:16;;;;;;;;;73.00;59.33;;;;;4.67;100.00;101779.09;6298864;22;49992;-64
2022/12/18 19:45:42;;;;;;;;;67.00;55.33;;;;;4.72;100.00;101785.47;6297619;22;49804;-74
2022/12/18 19:48:07;;;;;;;;;69.67;55.33;;;;;4.69;100.00;101774.88;6297932;22;50436;-71
2022/12/18 19:50:38;;;;;;;;;69.00;55.00;;;;;4.89;100.00;101786.47;6297021;22;49817;-68
2022/12/18 19:53:03;;;;;;;;;71.67;58.67;;;;;4.81;100.00;101765.22;6299874;22;49688;-73
2022/12/18 19:55:29;;;;;;;;;68.00;56.67;;;;;5.04;100.00;101807.34;6297060;22;50209;-83
2022/12/18 19:57:56;;;;;;;;;66.25;54.25;;;;;4.83;100.00;101770.53;6296246;22;50486;-69
2022/12/18 20:00:21;;;;;;;;;70.67;57.33;;;;;4.98;100.00;101804.34;6301697;22;49604;-75
2022/12/18 20:02:46;;;;;;;;;69.00;55.00;;;;;5.02;100.00;101809.84;6303012;22;57487;-76
2022/12/18 20:05:12;;;;;;;;;62.75;47.00;;;;;4.60;100.00;101733.59;6298971;22;49950;-62
2022/12/18 20:07:38;;;;;;;;;60.25;49.50;;;;;4.68;100.00;101751.38;6299002;22;49870;-68
2022/12/18 20:10:05;;;;;;;;;67.00;53.00;;;;;4.78;100.00;101756.34;6294674;22;49781;-71
2022/12/18 20:12:31;;;;;;;;;62.75;51.75;;;;;4.76;100.00;101755.34;6300722;22;49696;-76
2022/12/18 20:14:57;;;;;;;;;61.25;50.75;;;;;4.94;100.00;101795.47;6306957;22;50289;-73
2022/12/18 20:17:22;;;;;;;;;64.67;51.33;;;;;4.72;100.00;101771.56;6299095;22;51396;-76
2022/12/18 20:19:47;;;;;;;;;56.50;46.25;;;;;4.53;100.00;101715.84;6296916;22;49572;-72
2022/12/18 20:22:13;;;;;;;;;67.33;54.33;;;;;4.89;100.00;101784.78;6296913;22;49513;-72
2022/12/18 20:24:39;;;;;;;;;58.00;48.25;;;;;4.98;100.00;101783.53;6286836;22;50030;-73
2022/12/18 20:27:08;;;;;;;;;59.50;47.25;;;;;4.97;100.00;101780.03;6296202;22;49688;-72
2022/12/18 20:29:34;;;;;;;;;59.33;47.33;;;;;5.09;100.00;101817.19;6297396;22;49655;-65
2022/12/18 20:31:59;;;;;;;;;61.50;49.50;;;;;3.94;100.00;101596.16;6294869;22;49816;-68
2022/12/18 20:34:25;;;;;;;;;54.50;45.75;;;;;4.27;100.00;101646.69;6297096;22;49735;-66
2022/12/18 20:36:50;;;;;;;;;53.75;43.00;;;;;5.04;100.00;101760.50;6295941;22;49789;-65
2022/12/18 20:39:16;;;;;;;;;53.75;47.75;;;;;4.40;100.00;101652.63;6297239;22;49896;-68
2022/12/18 20:41:43;;;;;;;;;48.25;43.00;;;;;3.97;100.00;101588.59;6296295;22;49659;-70
2022/12/18 20:44:13;;;;;;;;;55.25;46.00;;;;;4.84;100.00;101752.41;6297110;22;49741;-64
2022/12/18 20:46:38;;;;;;;;;62.75;43.50;;;;;5.00;100.00;101776.72;6296361;22;50943;-72
2022/12/18 20:49:04;;;;;;;;;64.50;50.25;;;;;4.92;100.00;101768.44;6295658;22;49962;-67
2022/12/18 20:51:30;;;;;;;;;61.50;51.25;;;;;5.01;100.00;101776.78;6297360;22;50500;-69
2022/12/18 20:53:58;;;;;;;;;64.67;51.33;;;;;4.87;100.00;101743.88;6297777;22;49778;-70
2022/12/18 20:56:25;;;;;;;;;51.25;44.25;;;;;4.73;100.00;101700.50;6296570;22;50682;-64
2022/12/18 20:58:51;;;;;;;;;55.50;45.50;;;;;4.79;100.00;101711.28;6292664;22;49557;-72
2022/12/18 21:01:19;;;;;;;;;57.00;48.00;;;;;4.36;100.00;101633.34;6293750;22;49672;-68
2022/12/18 21:03:46;;;;;;;;;60.33;47.00;;;;;5.04;100.00;101742.28;6298391;22;49754;-69
2022/12/18 21:06:16;;;;;;;;;59.25;49.50;;;;;4.74;100.00;101690.22;6297817;22;50987;-70
2022/12/18 21:08:42;;;;;;;;;63.33;51.67;;;;;4.60;100.00;101646.91;6296874;22;49807;-71
2022/12/18 21:13:59;;;;;;;;;58.50;47.75;;;;;4.30;100.00;101614.78;6297331;22;49510;-66
2022/12/18 21:16:24;;;;;;;;;55.50;48.25;;;;;4.72;100.00;101684.00;6295745;22;49623;-72
2022/12/18 21:18:50;;;;;;;;;55.75;45.50;;;;;4.04;100.00;101576.84;6297865;22;50056;-72
2022/12/18 21:21:15;;;;;;;;;58.67;47.00;;;;;4.96;100.00;101704.50;6297202;22;49798;-73
2022/12/18 21:23:40;;;;;;;;;55.75;45.25;;;;;4.98;100.00;101702.88;6297959;22;49662;-73
2022/12/18 21:26:21;;;;;;;;;54.00;45.00;;;;;4.56;100.00;101629.34;6296146;22;60843;-74
2022/12/18 21:28:51;;;;;;;;;57.25;48.50;;;;;4.96;100.00;101694.09;6296852;22;49672;-69
2022/12/18 21:31:17;;;;;;;;;57.33;48.00;;;;;5.01;100.00;101698.72;6297193;22;49686;-67
2022/12/18 21:33:42;;;;;;;;;51.50;41.75;;;;;5.21;100.00;101725.00;6297760;22;49580;-75
2022/12/18 21:36:08;;;;;;;;;61.00;48.00;;;;;4.16;100.00;101562.00;6296732;22;64105;-68
2022/12/18 21:38:34;;;;;;;;;44.75;42.50;;;;;5.13;100.00;101699.47;6297008;22;49643;-68
2022/12/18 21:41:04;;;;;;;;;56.50;45.00;;;;;4.80;100.00;101648.94;6297237;22;49548;-67
2022/12/18 21:46:14;;;;;;;;;58.75;44.25;;;;;4.39;100.00;101586.72;6297101;22;49634;-67
2022/12/18 21:48:42;;;;;;;;;58.00;44.00;;;;;4.97;100.00;101647.31;6296800;22;49731;-70
2022/12/18 21:51:07;;;;;;;;;45.25;41.50;;;;;5.02;100.00;101679.72;6296680;22;49768;-75